createdAt,value
2022-12-20T00:01:38.089Z,83.46
2022-12-20T00:04:06.102Z,83.32
2022-12-20T00:06:35.841Z,83.01
2022-12-20T00:09:04.585Z,82.86
2022-12-20T00:11:32.449Z,82.89
2022-12-20T00:14:00.143Z,82.96
2022-12-20T00:16:29.917Z,83.09
2022-12-20T00:18:58.599Z,83.05
2022-12-20T00:21:28.261Z,83.37
2022-12-20T00:23:56.001Z,83.32
2022-12-20T00:26:27.228Z,83.55
2022-12-20T00:28:55.394Z,83.93
2022-12-20T00:31:25.130Z,84.04
2022-12-20T00:33:54.964Z,84.04
2022-12-20T00:36:24.655Z,83.84
2022-12-20T00:38:55.239Z,83.84
2022-12-20T00:41:26.278Z,83.89
2022-12-20T00:43:54.691Z,83.85
2022-12-20T00:46:24.849Z,84.01
2022-12-20T00:48:54.596Z,84.06
2022-12-20T00:51:27.851Z,83.94
2022-12-20T00:53:56.430Z,84.44
2022-12-20T00:56:25.772Z,84.66
2022-12-20T00:58:58.960Z,85.00
2022-12-20T01:01:30.374Z,85.00
2022-12-20T01:03:59.062Z,84.98
2022-12-20T01:06:27.409Z,84.74
2022-12-20T01:08:55.740Z,84.81
2022-12-20T01:11:26.271Z,84.86
2022-12-20T01:13:57.090Z,84.89
2022-12-20T01:16:38.113Z,85.21
2022-12-20T01:19:07.870Z,85.75
2022-12-20T01:21:35.774Z,86.11
2022-12-20T01:24:04.074Z,86.16
2022-12-20T01:26:31.680Z,86.44
2022-12-20T01:29:00.614Z,86.72
2022-12-20T01:31:30.003Z,86.79
2022-12-20T01:33:58.331Z,86.21
2022-12-20T01:36:28.378Z,86.43
2022-12-20T01:38:59.305Z,86.60
2022-12-20T01:41:28.677Z,86.14
2022-12-20T01:43:59.940Z,86.29
2022-12-20T01:46:30.936Z,86.77
2022-12-20T01:49:13.256Z,86.89
2022-12-20T01:51:43.040Z,87.23
2022-12-20T01:54:16.729Z,87.46
2022-12-20T01:56:51.285Z,87.46
2022-12-20T01:59:19.495Z,87.57
2022-12-20T02:01:47.528Z,87.20
2022-12-20T02:04:15.246Z,87.89
2022-12-20T02:06:44.139Z,88.16
2022-12-20T02:09:12.020Z,87.93
2022-12-20T02:12:11.013Z,87.92
2022-12-20T02:15:17.111Z,88.44
2022-12-20T02:18:12.463Z,88.69
2022-12-20T02:20:46.267Z,88.87
2022-12-20T02:23:29.029Z,88.92
2022-12-20T02:25:59.538Z,88.95
2022-12-20T02:28:57.857Z,88.77
2022-12-20T02:31:34.645Z,89.18
2022-12-20T02:34:03.477Z,89.32
2022-12-20T02:36:31.501Z,89.11
2022-12-20T02:38:59.483Z,89.66
2022-12-20T02:41:33.257Z,90.09
2022-12-20T02:44:25.443Z,89.64
2022-12-20T02:46:55.857Z,89.66
2022-12-20T02:49:28.566Z,89.57
2022-12-20T02:51:58.406Z,89.78
2022-12-20T02:54:26.647Z,89.83
2022-12-20T02:57:02.409Z,90.09
2022-12-20T02:59:36.336Z,90.33
2022-12-20T03:02:05.946Z,90.37
2022-12-20T03:04:39.404Z,90.32
2022-12-20T03:07:12.653Z,90.27
2022-12-20T03:09:44.295Z,90.93
2022-12-20T03:12:16.218Z,90.60
2022-12-20T03:14:44.110Z,90.95
2022-12-20T03:17:13.731Z,90.65
2022-12-20T03:19:41.491Z,90.97
2022-12-20T03:22:09.140Z,90.86
2022-12-20T03:24:36.981Z,91.00
2022-12-20T03:27:07.637Z,90.77
2022-12-20T03:29:35.933Z,90.97
2022-12-20T03:32:04.081Z,90.89
2022-12-20T03:34:31.812Z,90.50
2022-12-20T03:36:59.481Z,91.03
2022-12-20T03:39:27.129Z,91.12
2022-12-20T03:41:55.049Z,90.92
2022-12-20T03:44:22.823Z,90.93
2022-12-20T03:46:50.973Z,90.82
2022-12-20T03:49:19.144Z,91.12
2022-12-20T03:51:49.648Z,91.03
2022-12-20T03:54:17.542Z,90.99
2022-12-20T03:57:08.467Z,90.94
2022-12-20T03:59:36.298Z,90.85
2022-12-20T04:02:04.538Z,90.93
2022-12-20T04:04:32.560Z,90.63
2022-12-20T04:07:00.362Z,90.62
2022-12-20T04:09:28.368Z,90.63
2022-12-20T04:12:02.027Z,90.71
2022-12-20T04:14:30.699Z,90.60
2022-12-20T04:16:58.335Z,90.80
2022-12-20T04:19:25.968Z,90.91
2022-12-20T04:22:02.642Z,91.21
2022-12-20T04:24:37.061Z,90.86
2022-12-20T04:27:24.963Z,90.78
2022-12-20T04:29:53.924Z,90.31
2022-12-20T04:32:22.000Z,90.10
2022-12-20T04:34:49.855Z,90.19
2022-12-20T04:37:17.996Z,90.15
2022-12-20T04:39:52.511Z,90.54
2022-12-20T04:42:23.185Z,90.67
2022-12-20T04:44:50.949Z,90.74
2022-12-20T04:47:23.329Z,90.89
2022-12-20T04:49:51.653Z,90.75
2022-12-20T04:52:42.130Z,90.73
2022-12-20T04:55:15.486Z,90.56
2022-12-20T04:57:43.103Z,90.50
2022-12-20T05:00:11.591Z,90.36
2022-12-20T05:02:42.798Z,90.59
2022-12-20T05:05:14.141Z,90.46
2022-12-20T05:07:47.071Z,90.69
2022-12-20T05:10:15.082Z,90.57
2022-12-20T05:12:43.522Z,90.71
2022-12-20T05:15:15.289Z,90.67
2022-12-20T05:17:43.479Z,90.54
2022-12-20T05:20:12.641Z,90.31
2022-12-20T05:22:59.223Z,90.38
2022-12-20T05:25:45.783Z,90.27
2022-12-20T05:28:14.595Z,90.28
2022-12-20T05:30:42.250Z,90.17
2022-12-20T05:33:11.402Z,90.51
2022-12-20T05:35:42.338Z,90.41
2022-12-20T05:38:11.836Z,90.24
2022-12-20T05:40:41.171Z,90.16
2022-12-20T05:43:09.228Z,89.89
2022-12-20T05:45:52.609Z,90.28
2022-12-20T05:48:25.867Z,90.31
2022-12-20T05:50:53.948Z,90.08
2022-12-20T05:53:29.649Z,90.05
2022-12-20T05:56:01.355Z,89.66
2022-12-20T05:58:33.850Z,89.66
2022-12-20T06:01:04.892Z,89.56
2022-12-20T06:03:35.039Z,89.61
2022-12-20T06:06:10.242Z,89.58
2022-12-20T06:08:41.692Z,88.90
2022-12-20T06:11:12.672Z,89.07
2022-12-20T06:13:49.421Z,89.35
2022-12-20T06:16:20.788Z,88.95
2022-12-20T06:18:49.991Z,89.11
2022-12-20T06:21:18.105Z,88.94
2022-12-20T06:23:46.158Z,88.71
2022-12-20T06:26:15.046Z,88.91
2022-12-20T06:28:57.044Z,88.44
2022-12-20T06:31:36.538Z,88.50
2022-12-20T06:34:04.180Z,88.27
2022-12-20T06:36:35.622Z,88.06
2022-12-20T06:39:09.405Z,87.85
2022-12-20T06:41:42.040Z,88.12
2022-12-20T06:44:09.777Z,87.89
2022-12-20T06:46:37.559Z,88.11
2022-12-20T06:49:05.423Z,87.92
2022-12-20T06:51:33.308Z,87.60
2022-12-20T06:54:01.512Z,87.25
2022-12-20T06:56:36.071Z,87.21
2022-12-20T06:59:09.820Z,87.14
2022-12-20T07:01:37.545Z,86.96
2022-12-20T07:04:05.296Z,87.03
2022-12-20T07:06:32.917Z,87.25
2022-12-20T07:09:00.742Z,86.84
2022-12-20T07:11:28.605Z,87.10
2022-12-20T07:13:57.459Z,86.43
2022-12-20T07:16:25.238Z,86.66
2022-12-20T07:18:54.081Z,86.38
2022-12-20T07:21:22.132Z,86.06
2022-12-20T07:23:49.747Z,86.23
2022-12-20T07:26:17.437Z,86.29
2022-12-20T07:28:45.102Z,86.09
2022-12-20T07:31:12.788Z,86.15
2022-12-20T07:33:40.501Z,86.18
2022-12-20T07:36:11.200Z,86.34
2022-12-20T07:38:39.497Z,85.97
2022-12-20T07:41:13.291Z,85.91
2022-12-20T07:43:41.343Z,85.35
2022-12-20T07:46:11.811Z,85.28
2022-12-20T07:48:39.694Z,85.18
2022-12-20T07:51:21.990Z,84.98
2022-12-20T07:53:54.879Z,84.87
2022-12-20T07:56:22.902Z,85.15
2022-12-20T07:58:54.113Z,85.31
2022-12-20T08:01:21.942Z,85.10
2022-12-20T08:03:53.515Z,84.75
2022-12-20T08:06:21.605Z,84.64
2022-12-20T08:08:54.804Z,84.74
2022-12-20T08:11:24.150Z,84.99
2022-12-20T08:13:57.485Z,84.01
2022-12-20T08:16:26.266Z,83.74
2022-12-20T08:18:53.997Z,84.08
2022-12-20T08:21:21.645Z,83.55
2022-12-20T08:23:49.315Z,84.07
2022-12-20T08:26:17.524Z,84.43
2022-12-20T08:28:45.172Z,84.06
2022-12-20T08:31:13.121Z,84.01
2022-12-20T08:33:42.315Z,84.37
2022-12-20T08:36:12.435Z,83.97
2022-12-20T08:38:40.793Z,83.92
2022-12-20T08:41:14.090Z,83.79
2022-12-20T08:43:42.104Z,83.39
2022-12-20T08:46:12.002Z,83.38
2022-12-20T08:48:40.107Z,82.52
2022-12-20T08:51:10.573Z,82.59
2022-12-20T08:53:39.019Z,82.55
2022-12-20T08:56:16.095Z,82.52
2022-12-20T08:58:45.077Z,82.48
2022-12-20T09:01:17.386Z,82.51
2022-12-20T09:03:46.063Z,83.08
2022-12-20T09:06:19.753Z,83.10
2022-12-20T09:08:48.160Z,82.91
2022-12-20T09:11:24.931Z,82.26
2022-12-20T09:13:55.017Z,81.52
2022-12-20T09:16:26.497Z,81.20
2022-12-20T09:19:04.312Z,80.84
2022-12-20T09:21:34.519Z,80.90
2022-12-20T09:24:02.198Z,80.66
2022-12-20T09:26:30.703Z,80.47
2022-12-20T09:28:58.809Z,79.83
2022-12-20T09:31:27.222Z,80.25
2022-12-20T09:33:57.993Z,79.81
2022-12-20T09:36:27.679Z,80.12
2022-12-20T09:38:56.388Z,80.06
2022-12-20T09:41:38.111Z,79.50
2022-12-20T09:44:14.469Z,79.37
2022-12-20T09:46:44.875Z,79.03
2022-12-20T09:49:17.598Z,78.35
2022-12-20T09:52:10.230Z,78.12
2022-12-20T09:55:01.858Z,78.25
2022-12-20T09:57:45.055Z,77.31
2022-12-20T10:00:18.763Z,77.28
2022-12-20T10:03:10.059Z,77.29
2022-12-20T10:05:46.187Z,76.81
2022-12-20T10:08:37.325Z,77.03
2022-12-20T10:11:36.272Z,76.73
2022-12-20T10:14:32.188Z,76.23
2022-12-20T10:17:15.732Z,76.07
2022-12-20T10:20:08.782Z,76.08
2022-12-20T10:22:46.415Z,75.62
2022-12-20T10:25:20.141Z,76.10
2022-12-20T10:27:50.715Z,76.46
2022-12-20T10:30:21.231Z,76.61
2022-12-20T10:32:51.424Z,76.69
2022-12-20T10:35:25.613Z,76.63
2022-12-20T10:38:07.165Z,76.70
2022-12-20T10:41:18.891Z,76.70
2022-12-20T10:43:28.810Z,76.85
2022-12-20T10:46:06.407Z,76.80
2022-12-20T10:48:44.173Z,76.59
2022-12-20T10:51:16.483Z,76.62
2022-12-20T10:53:52.273Z,76.70
2022-12-20T10:56:30.291Z,76.72
2022-12-20T10:59:21.701Z,76.63
2022-12-20T11:01:50.608Z,76.52
2022-12-20T11:04:28.314Z,76.60
2022-12-20T11:06:58.104Z,77.00
2022-12-20T11:09:25.812Z,76.91
2022-12-20T11:12:14.965Z,76.66
2022-12-20T11:14:45.313Z,77.06
2022-12-20T11:17:29.438Z,76.86
2022-12-20T11:20:16.563Z,76.66
2022-12-20T11:22:53.066Z,76.71
2022-12-20T11:25:39.519Z,76.62
2022-12-20T11:28:39.450Z,76.61
2022-12-20T11:31:25.686Z,76.70
2022-12-20T11:34:03.481Z,76.43
2022-12-20T11:36:54.927Z,76.78
2022-12-20T11:39:34.736Z,76.57
2022-12-20T11:42:31.581Z,77.03
2022-12-20T11:45:15.407Z,77.03
2022-12-20T11:48:08.631Z,77.07
2022-12-20T11:50:55.736Z,77.28
2022-12-20T11:53:45.951Z,77.43
2022-12-20T11:56:31.161Z,77.60
2022-12-20T11:59:05.655Z,77.65
2022-12-20T12:01:43.974Z,77.71
2022-12-20T12:04:21.787Z,77.19
2022-12-20T12:06:59.376Z,77.40
2022-12-20T12:09:32.815Z,77.06
2022-12-20T12:12:07.816Z,77.35
2022-12-20T12:14:45.668Z,77.54
2022-12-20T12:17:24.981Z,76.96
2022-12-20T12:19:56.457Z,77.13
2022-12-20T12:22:32.180Z,76.82
2022-12-20T12:25:04.323Z,76.57
2022-12-20T12:27:32.890Z,76.90
2022-12-20T12:30:01.161Z,76.75
2022-12-20T12:32:44.386Z,76.71
2022-12-20T12:35:47.391Z,76.78
2022-12-20T12:38:46.009Z,76.43
2022-12-20T12:41:32.629Z,76.30
2022-12-20T12:44:31.196Z,76.45
2022-12-20T12:47:05.026Z,76.29
2022-12-20T12:49:34.056Z,76.22
2022-12-20T12:52:05.316Z,76.13
2022-12-20T12:54:41.167Z,76.13
2022-12-20T12:57:16.154Z,76.35
2022-12-20T12:59:48.891Z,76.81
2022-12-20T13:02:17.616Z,76.71
2022-12-20T13:05:06.814Z,77.01
2022-12-20T13:07:35.330Z,77.10
2022-12-20T13:10:29.573Z,76.80
2022-12-20T13:12:59.589Z,76.97
2022-12-20T13:15:27.200Z,76.99
2022-12-20T13:17:58.090Z,77.14
2022-12-20T13:20:27.472Z,77.41
2022-12-20T13:23:13.191Z,77.14
2022-12-20T13:25:48.919Z,77.41
2022-12-20T13:28:16.767Z,77.13
2022-12-20T13:30:48.728Z,76.95
2022-12-20T13:33:21.447Z,76.89
2022-12-20T13:35:59.032Z,76.91
2022-12-20T13:38:45.459Z,77.05
2022-12-20T13:41:40.670Z,76.95
2022-12-20T13:44:14.280Z,77.10
2022-12-20T13:47:03.867Z,76.98
2022-12-20T13:49:43.178Z,77.33
2022-12-20T13:52:11.044Z,77.28
2022-12-20T13:54:48.898Z,77.48
2022-12-20T13:57:21.818Z,77.62
2022-12-20T13:59:56.278Z,77.65
2022-12-20T14:02:33.277Z,77.75
2022-12-20T14:05:10.213Z,77.87
2022-12-20T14:07:38.212Z,77.87
2022-12-20T14:10:21.358Z,78.41
2022-12-20T14:12:54.004Z,77.92
2022-12-20T14:15:24.634Z,77.92
2022-12-20T14:17:52.421Z,77.88
2022-12-20T14:20:31.623Z,78.02
2022-12-20T14:23:09.385Z,78.31
2022-12-20T14:25:43.462Z,78.14
2022-12-20T14:28:35.580Z,78.30
2022-12-20T14:31:05.339Z,78.39
2022-12-20T14:33:37.803Z,79.32
2022-12-20T14:36:19.417Z,78.86
2022-12-20T14:38:50.028Z,78.99
2022-12-20T14:41:37.951Z,78.93
2022-12-20T14:44:08.256Z,78.78
2022-12-20T14:46:39.394Z,78.58
2022-12-20T14:49:27.129Z,78.16
2022-12-20T14:52:20.363Z,78.73
2022-12-20T14:55:07.888Z,78.96
2022-12-20T14:57:36.939Z,78.77
2022-12-20T15:14:36.941Z,78.65
2022-12-20T15:17:13.714Z,78.90
2022-12-20T15:19:42.592Z,78.86
2022-12-20T15:22:23.488Z,79.07
2022-12-20T15:24:50.641Z,79.18
2022-12-20T15:27:17.252Z,79.16
2022-12-20T15:29:43.645Z,79.08
2022-12-20T15:32:20.755Z,79.27
2022-12-20T15:34:47.014Z,79.64
2022-12-20T15:37:18.370Z,79.45
2022-12-20T15:39:45.903Z,79.32
2022-12-20T15:42:15.918Z,79.65
2022-12-20T15:44:43.240Z,79.97
2022-12-20T15:47:13.065Z,79.98
2022-12-20T15:49:44.595Z,79.87
2022-12-20T15:52:22.541Z,80.41
2022-12-20T15:54:49.813Z,80.50
2022-12-20T15:57:16.158Z,80.40
2022-12-20T16:00:00.536Z,80.24
2022-12-20T16:02:30.169Z,80.20
2022-12-20T16:04:58.008Z,79.70
2022-12-20T16:07:24.310Z,80.07
2022-12-20T16:09:50.675Z,79.94
2022-12-20T16:12:31.107Z,80.28
2022-12-20T16:14:57.530Z,80.37
2022-12-20T16:17:24.271Z,80.28
2022-12-20T16:19:50.791Z,80.59
2022-12-20T16:22:19.730Z,80.35
2022-12-20T16:24:46.127Z,80.47
2022-12-20T16:27:12.713Z,80.62
2022-12-20T16:29:40.726Z,80.80
2022-12-20T16:32:18.438Z,80.78
2022-12-20T16:34:45.545Z,80.64
2022-12-20T16:37:12.494Z,80.66
2022-12-20T16:39:40.340Z,80.46
2022-12-20T16:42:17.590Z,80.65
2022-12-20T16:44:44.607Z,80.72
2022-12-20T16:47:11.403Z,80.97
2022-12-20T16:49:37.982Z,80.85
2022-12-20T16:52:06.053Z,80.88
2022-12-20T16:54:32.758Z,81.03
2022-12-20T16:56:59.052Z,80.98
2022-12-20T16:59:25.492Z,80.92
2022-12-20T17:01:54.825Z,81.27
2022-12-20T17:04:22.829Z,80.99
2022-12-20T17:06:49.676Z,81.16
2022-12-20T17:09:17.695Z,81.07
2022-12-20T17:11:44.565Z,81.11
2022-12-20T17:14:13.210Z,80.92
2022-12-20T17:16:40.809Z,80.74
2022-12-20T17:19:08.552Z,80.73
2022-12-20T17:24:22.781Z,80.72
2022-12-20T17:26:51.529Z,80.96
2022-12-20T17:29:18.204Z,80.63
2022-12-20T17:31:46.222Z,80.81
2022-12-20T17:34:16.505Z,80.86
2022-12-20T17:36:42.850Z,80.71
2022-12-20T17:39:09.739Z,80.93
2022-12-20T17:41:37.669Z,80.80
2022-12-20T17:44:06.408Z,80.97
2022-12-20T17:46:32.970Z,80.43
2022-12-20T17:48:59.291Z,81.01
2022-12-20T17:51:28.086Z,81.21
2022-12-20T17:53:58.482Z,80.90
2022-12-20T17:56:50.012Z,80.95
2022-12-20T17:59:17.978Z,80.27
2022-12-20T18:04:01.445Z,80.15
2022-12-20T18:06:12.808Z,80.25
2022-12-20T18:08:41.605Z,80.45
2022-12-20T18:11:10.389Z,79.92
2022-12-20T18:13:44.462Z,80.06
2022-12-20T18:16:14.068Z,80.03
2022-12-20T18:18:42.080Z,79.87
2022-12-20T18:21:17.121Z,80.31
2022-12-20T18:23:49.635Z,80.51
2022-12-20T18:26:17.292Z,80.15
2022-12-20T18:28:47.440Z,79.83
2022-12-20T18:31:21.155Z,79.98
2022-12-20T18:33:53.886Z,80.05
2022-12-20T18:36:30.589Z,79.82
2022-12-20T18:39:00.056Z,79.93
2022-12-20T18:41:29.893Z,80.16
2022-12-20T18:44:00.299Z,80.16
2022-12-20T18:46:28.878Z,79.55
2022-12-20T18:48:58.711Z,79.74
2022-12-20T18:51:33.701Z,79.79
2022-12-20T18:54:06.167Z,80.05
2022-12-20T18:56:36.810Z,79.39
2022-12-20T18:59:11.480Z,79.58
2022-12-20T19:01:42.517Z,79.75
2022-12-20T19:04:12.049Z,79.59
2022-12-20T19:06:53.030Z,79.80
2022-12-20T19:09:22.411Z,80.19
2022-12-20T19:11:56.203Z,79.93
2022-12-20T19:14:24.565Z,79.81
2022-12-20T19:16:52.509Z,79.56
2022-12-20T19:19:20.573Z,79.51
2022-12-20T19:21:48.192Z,79.76
2022-12-20T19:24:16.090Z,79.44
2022-12-20T19:26:44.753Z,79.73
2022-12-20T19:29:12.393Z,79.11
2022-12-20T19:31:40.401Z,79.48
2022-12-20T19:34:11.457Z,79.43
2022-12-20T19:36:42.318Z,79.64
2022-12-20T19:39:20.787Z,79.61
2022-12-20T19:42:21.624Z,79.62
2022-12-20T19:44:37.911Z,79.61
2022-12-20T19:47:06.332Z,79.90
2022-12-20T19:49:36.415Z,79.86
2022-12-20T19:52:07.624Z,80.10
2022-12-20T19:54:37.572Z,79.78
2022-12-20T19:57:05.882Z,79.95
2022-12-20T19:59:33.882Z,79.85
2022-12-20T20:02:02.043Z,79.66
2022-12-20T20:04:33.169Z,79.81
2022-12-20T20:07:00.943Z,79.36
2022-12-20T20:09:28.572Z,79.55
2022-12-20T20:11:58.184Z,79.83
2022-12-20T20:14:25.938Z,79.37
2022-12-20T20:16:54.153Z,79.46
2022-12-20T20:19:22.212Z,79.69
2022-12-20T20:21:50.685Z,79.48
2022-12-20T20:24:18.830Z,79.29
2022-12-20T20:26:46.618Z,79.47
2022-12-20T20:29:14.634Z,79.62
2022-12-20T20:31:42.356Z,79.30
2022-12-20T20:34:10.866Z,79.02
2022-12-20T20:36:38.670Z,79.26
2022-12-20T20:39:06.568Z,79.39
2022-12-20T20:41:34.285Z,79.21
2022-12-20T20:44:02.923Z,79.42
2022-12-20T20:46:30.590Z,79.69
2022-12-20T20:48:58.431Z,79.51
2022-12-20T20:51:26.283Z,79.43
2022-12-20T20:53:54.021Z,79.47
2022-12-20T20:56:21.842Z,79.57
2022-12-20T20:58:50.014Z,79.30
2022-12-20T21:03:47.524Z,79.46
2022-12-20T21:06:39.181Z,79.53
2022-12-20T21:09:05.176Z,79.56
2022-12-20T21:11:34.697Z,79.31
2022-12-20T21:14:03.050Z,79.25
2022-12-20T21:16:31.075Z,78.91
2022-12-20T21:18:59.201Z,78.63
2022-12-20T21:21:26.949Z,78.38
2022-12-20T21:23:56.113Z,78.67
2022-12-20T21:26:25.423Z,79.08
2022-12-20T21:28:59.833Z,79.30
2022-12-20T21:31:28.443Z,79.07
2022-12-20T21:33:57.002Z,79.28
2022-12-20T21:36:25.604Z,78.91
2022-12-20T21:38:55.826Z,79.15
2022-12-20T21:41:26.837Z,79.46
2022-12-20T21:43:59.549Z,79.06
2022-12-20T21:46:29.535Z,78.72
2022-12-20T21:48:58.822Z,78.97
2022-12-20T21:51:30.865Z,78.90
2022-12-20T21:54:01.389Z,78.70
2022-12-20T21:56:31.656Z,78.31
2022-12-20T21:59:00.027Z,78.48
2022-12-20T22:01:29.143Z,78.64
2022-12-20T22:04:03.776Z,78.86
2022-12-20T22:06:32.313Z,78.36
2022-12-20T22:09:01.396Z,78.31
2022-12-20T22:11:29.179Z,78.54
2022-12-20T22:13:58.368Z,78.75
2022-12-20T22:16:35.207Z,79.01
2022-12-20T22:19:03.594Z,79.02
2022-12-20T22:21:33.584Z,79.09
2022-12-20T22:24:02.993Z,79.41
2022-12-20T22:26:33.321Z,79.07
2022-12-20T22:29:05.723Z,79.27
2022-12-20T22:31:34.979Z,78.90
2022-12-20T22:34:04.052Z,78.74
2022-12-20T22:36:31.831Z,78.89
2022-12-20T22:38:59.765Z,78.36
2022-12-20T22:41:30.491Z,78.57
2022-12-20T22:43:59.509Z,78.24
2022-12-20T22:46:29.349Z,78.57
2022-12-20T22:48:58.922Z,78.43
2022-12-20T22:51:27.575Z,78.67
2022-12-20T22:53:57.431Z,78.51
2022-12-20T22:56:26.237Z,78.90
2022-12-20T22:58:53.990Z,78.41
2022-12-20T23:01:21.963Z,79.06
2022-12-20T23:03:50.203Z,79.19
2022-12-20T23:06:20.433Z,79.42
2022-12-20T23:08:49.141Z,80.22
2022-12-20T23:11:42.153Z,79.74
2022-12-20T23:14:39.961Z,79.65
2022-12-20T23:17:09.326Z,79.88
2022-12-20T23:19:56.212Z,79.66
2022-12-20T23:22:40.240Z,79.69
2022-12-20T23:25:09.806Z,79.29
2022-12-20T23:27:39.072Z,79.56
2022-12-20T23:30:10.295Z,79.16
2022-12-20T23:32:38.346Z,79.15
2022-12-20T23:35:12.113Z,78.85
2022-12-20T23:37:41.087Z,79.14
2022-12-20T23:40:10.126Z,78.89
2022-12-20T23:42:38.392Z,79.37
2022-12-20T23:45:07.951Z,79.41
2022-12-20T23:47:35.823Z,79.24
2022-12-20T23:50:04.175Z,79.14
2022-12-20T23:52:31.825Z,79.28
2022-12-20T23:54:59.577Z,79.07
2022-12-20T23:57:30.146Z,79.08
2022-12-20T23:59:57.883Z,79.20
